sensor_id;sensor_type;location;lat;lon;timestamp;temperature;humidity
6373;DHT22;3219;51.362;7.074;2023-05-07T00:59:05;14.60;99.90
6373;DHT22;3219;51.362;7.074;2023-05-07T01:01:34;15.20;99.90
6373;DHT22;3219;51.362;7.074;2023-05-07T01:04:02;15.90;99.90
6373;DHT22;3219;51.362;7.074;2023-05-07T01:06:29;15.10;99.90
6373;DHT22;3219;51.362;7.074;2023-05-07T01:08:58;15.00;99.90
6373;DHT22;3219;51.362;7.074;2023-05-07T01:11:25;15.50;99.90
6373;DHT22;3219;51.362;7.074;2023-05-07T01:13:53;14.90;99.90
6373;DHT22;3219;51.362;7.074;2023-05-07T01:16:20;15.00;99.90
6373;DHT22;3219;51.362;7.074;2023-05-07T01:18:48;14.90;99.90
6373;DHT22;3219;51.362;7.074;2023-05-07T01:23:47;14.80;99.90
6373;DHT22;3219;51.362;7.074;2023-05-07T01:26:14;14.90;99.90
6373;DHT22;3219;51.362;7.074;2023-05-07T01:28:41;14.70;99.90
6373;DHT22;3219;51.362;7.074;2023-05-07T01:31:08;14.80;99.90
6373;DHT22;3219;51.362;7.074;2023-05-07T01:33:36;14.80;99.90
6373;DHT22;3219;51.362;7.074;2023-05-07T01:36:05;14.80;99.90
6373;DHT22;3219;51.362;7.074;2023-05-07T01:38:34;14.80;99.90
6373;DHT22;3219;51.362;7.074;2023-05-07T01:41:02;14.80;99.90
6373;DHT22;3219;51.362;7.074;2023-05-07T01:43:30;14.60;99.90
6373;DHT22;3219;51.362;7.074;2023-05-07T01:50:53;14.70;99.90
6373;DHT22;3219;51.362;7.074;2023-05-07T01:53:20;14.60;99.90
6373;DHT22;3219;51.362;7.074;2023-05-07T01:55:47;14.70;99.90
6373;DHT22;3219;51.362;7.074;2023-05-07T02:00:42;14.60;99.90
6373;DHT22;3219;51.362;7.074;2023-05-07T02:03:09;14.70;99.90
6373;DHT22;3219;51.362;7.074;2023-05-07T02:08:04;14.70;99.90
6373;DHT22;3219;51.362;7.074;2023-05-07T02:12:59;14.70;99.90
6373;DHT22;3219;51.362;7.074;2023-05-07T04:03:35;14.10;99.90
6373;DHT22;3219;51.362;7.074;2023-05-07T04:08:30;14.00;99.90
6373;DHT22;3219;51.362;7.074;2023-05-07T04:10:57;13.90;99.90
6373;DHT22;3219;51.362;7.074;2023-05-07T04:13:24;13.80;99.90
6373;DHT22;3219;51.362;7.074;2023-05-07T04:15:54;14.00;99.90
6373;DHT22;3219;51.362;7.074;2023-05-07T04:18:21;13.90;99.90
6373;DHT22;3219;51.362;7.074;2023-05-07T04:20:48;14.00;99.90
6373;DHT22;3219;51.362;7.074;2023-05-07T04:23:15;14.00;99.90
6373;DHT22;3219;51.362;7.074;2023-05-07T04:25:41;14.00;99.90
6373;DHT22;3219;51.362;7.074;2023-05-07T04:28:08;14.00;99.90
6373;DHT22;3219;51.362;7.074;2023-05-07T04:30:35;14.00;99.90
6373;DHT22;3219;51.362;7.074;2023-05-07T04:33:03;14.10;99.90
6373;DHT22;3219;51.362;7.074;2023-05-07T04:35:30;14.10;99.90
6373;DHT22;3219;51.362;7.074;2023-05-07T04:37:56;14.10;99.90
6373;DHT22;3219;51.362;7.074;2023-05-07T04:40:23;14.10;99.90
6373;DHT22;3219;51.362;7.074;2023-05-07T04:42:50;14.20;99.90
6373;DHT22;3219;51.362;7.074;2023-05-07T04:45:16;14.20;99.90
6373;DHT22;3219;51.362;7.074;2023-05-07T04:47:43;14.30;99.90
6373;DHT22;3219;51.362;7.074;2023-05-07T04:50:11;14.40;99.90
6373;DHT22;3219;51.362;7.074;2023-05-07T04:52:38;14.50;99.90
6373;DHT22;3219;51.362;7.074;2023-05-07T04:55:06;14.50;99.90
6373;DHT22;3219;51.362;7.074;2023-05-07T04:57:33;14.60;99.90
6373;DHT22;3219;51.362;7.074;2023-05-07T04:59:59;14.70;99.90
6373;DHT22;3219;51.362;7.074;2023-05-07T05:02:26;14.80;99.90
6373;DHT22;3219;51.362;7.074;2023-05-07T05:04:53;15.00;99.90
6373;DHT22;3219;51.362;7.074;2023-05-07T05:07:21;15.10;99.90
6373;DHT22;3219;51.362;7.074;2023-05-07T05:09:48;15.10;99.90
6373;DHT22;3219;51.362;7.074;2023-05-07T05:12:14;15.10;99.90
6373;DHT22;3219;51.362;7.074;2023-05-07T05:14:41;15.10;99.90
6373;DHT22;3219;51.362;7.074;2023-05-07T05:17:08;15.20;99.90
6373;DHT22;3219;51.362;7.074;2023-05-07T05:19:35;15.20;99.90
6373;DHT22;3219;51.362;7.074;2023-05-07T05:22:01;15.20;99.90
6373;DHT22;3219;51.362;7.074;2023-05-07T05:24:30;14.90;99.90
6373;DHT22;3219;51.362;7.074;2023-05-07T05:26:57;15.30;99.90
6373;DHT22;3219;51.362;7.074;2023-05-07T05:29:25;14.90;99.90
6373;DHT22;3219;51.362;7.074;2023-05-07T05:31:52;15.30;99.90
6373;DHT22;3219;51.362;7.074;2023-05-07T05:34:18;15.30;99.90
6373;DHT22;3219;51.362;7.074;2023-05-07T05:36:46;15.30;99.90
6373;DHT22;3219;51.362;7.074;2023-05-07T05:39:12;15.40;99.90
6373;DHT22;3219;51.362;7.074;2023-05-07T05:41:40;14.80;99.90
6373;DHT22;3219;51.362;7.074;2023-05-07T05:44:07;15.50;99.90
6373;DHT22;3219;51.362;7.074;2023-05-07T05:46:35;15.10;99.90
6373;DHT22;3219;51.362;7.074;2023-05-07T05:49:01;16.00;99.90
6373;DHT22;3219;51.362;7.074;2023-05-07T05:51:28;15.80;99.90
6373;DHT22;3219;51.362;7.074;2023-05-07T05:53:55;15.90;99.90
6373;DHT22;3219;51.362;7.074;2023-05-07T05:56:21;16.00;99.90
6373;DHT22;3219;51.362;7.074;2023-05-07T05:58:49;16.10;99.90
6373;DHT22;3219;51.362;7.074;2023-05-07T06:01:17;16.20;99.90
6373;DHT22;3219;51.362;7.074;2023-05-07T06:03:44;16.10;99.90
6373;DHT22;3219;51.362;7.074;2023-05-07T06:06:10;16.10;99.90
6373;DHT22;3219;51.362;7.074;2023-05-07T06:08:37;16.30;99.90
6373;DHT22;3219;51.362;7.074;2023-05-07T06:11:04;16.30;99.90
6373;DHT22;3219;51.362;7.074;2023-05-07T06:16:00;16.30;99.90
6373;DHT22;3219;51.362;7.074;2023-05-07T06:18:26;16.50;99.90
6373;DHT22;3219;51.362;7.074;2023-05-07T06:20:53;16.20;99.90
6373;DHT22;3219;51.362;7.074;2023-05-07T06:23:20;16.50;99.90
6373;DHT22;3219;51.362;7.074;2023-05-07T06:25:48;16.50;99.90
6373;DHT22;3219;51.362;7.074;2023-05-07T06:28:15;16.70;99.90
6373;DHT22;3219;51.362;7.074;2023-05-07T06:30:42;16.50;99.90
6373;DHT22;3219;51.362;7.074;2023-05-07T06:33:10;16.60;99.90
6373;DHT22;3219;51.362;7.074;2023-05-07T06:35:37;16.60;99.90
6373;DHT22;3219;51.362;7.074;2023-05-07T06:38:04;16.70;99.90
6373;DHT22;3219;51.362;7.074;2023-05-07T06:40:31;16.80;99.90
6373;DHT22;3219;51.362;7.074;2023-05-07T06:42:58;17.00;99.90
6373;DHT22;3219;51.362;7.074;2023-05-07T06:45:24;16.90;99.90
6373;DHT22;3219;51.362;7.074;2023-05-07T06:47:51;17.40;99.90
6373;DHT22;3219;51.362;7.074;2023-05-07T06:50:19;17.50;99.90
6373;DHT22;3219;51.362;7.074;2023-05-07T06:52:46;17.60;99.90
6373;DHT22;3219;51.362;7.074;2023-05-07T06:55:13;18.30;99.90
6373;DHT22;3219;51.362;7.074;2023-05-07T06:57:40;17.90;99.90
6373;DHT22;3219;51.362;7.074;2023-05-07T07:00:08;17.90;99.90
6373;DHT22;3219;51.362;7.074;2023-05-07T07:02:36;17.90;99.90
6373;DHT22;3219;51.362;7.074;2023-05-07T07:05:03;18.00;99.90
6373;DHT22;3219;51.362;7.074;2023-05-07T07:07:31;17.90;99.90
6373;DHT22;3219;51.362;7.074;2023-05-07T08:01:44;19.60;99.90
6373;DHT22;3219;51.362;7.074;2023-05-07T08:04:11;20.80;99.90
6373;DHT22;3219;51.362;7.074;2023-05-07T08:06:37;19.70;99.90
6373;DHT22;3219;51.362;7.074;2023-05-07T08:09:04;19.80;99.90
6373;DHT22;3219;51.362;7.074;2023-05-07T08:11:31;19.80;99.90
6373;DHT22;3219;51.362;7.074;2023-05-07T08:13:58;20.10;99.90
6373;DHT22;3219;51.362;7.074;2023-05-07T08:16:26;19.80;99.90
6373;DHT22;3219;51.362;7.074;2023-05-07T08:18:53;20.10;99.90
6373;DHT22;3219;51.362;7.074;2023-05-07T08:21:20;21.00;99.90
6373;DHT22;3219;51.362;7.074;2023-05-07T08:23:47;20.40;99.90
6373;DHT22;3219;51.362;7.074;2023-05-07T08:26:13;20.70;99.90
6373;DHT22;3219;51.362;7.074;2023-05-07T08:28:40;20.90;99.90
6373;DHT22;3219;51.362;7.074;2023-05-07T08:31:07;21.10;99.90
6373;DHT22;3219;51.362;7.074;2023-05-07T08:33:35;21.20;99.90
6373;DHT22;3219;51.362;7.074;2023-05-07T08:36:04;21.10;99.90
6373;DHT22;3219;51.362;7.074;2023-05-07T08:38:31;21.60;99.90
6373;DHT22;3219;51.362;7.074;2023-05-07T08:40:58;21.10;99.90
6373;DHT22;3219;51.362;7.074;2023-05-07T08:43:26;20.90;99.90
6373;DHT22;3219;51.362;7.074;2023-05-07T08:45:54;21.00;99.90
6373;DHT22;3219;51.362;7.074;2023-05-07T08:48:25;21.20;99.90
6373;DHT22;3219;51.362;7.074;2023-05-07T08:50:53;21.10;99.90
6373;DHT22;3219;51.362;7.074;2023-05-07T08:53:20;21.40;99.90
6373;DHT22;3219;51.362;7.074;2023-05-07T08:58:15;21.80;99.90
6373;DHT22;3219;51.362;7.074;2023-05-07T09:00:42;21.90;99.90
6373;DHT22;3219;51.362;7.074;2023-05-07T09:03:08;21.90;99.90
6373;DHT22;3219;51.362;7.074;2023-05-07T09:37:49;22.70;99.90
6373;DHT22;3219;51.362;7.074;2023-05-07T09:40:23;22.80;99.90
6373;DHT22;3219;51.362;7.074;2023-05-07T09:42:52;22.90;99.90
6373;DHT22;3219;51.362;7.074;2023-05-07T09:45:22;23.00;99.90
6373;DHT22;3219;51.362;7.074;2023-05-07T09:47:54;22.30;99.90
6373;DHT22;3219;51.362;7.074;2023-05-07T09:50:22;22.70;99.90
6373;DHT22;3219;51.362;7.074;2023-05-07T09:52:50;21.90;99.90
6373;DHT22;3219;51.362;7.074;2023-05-07T09:55:17;21.90;99.90
6373;DHT22;3219;51.362;7.074;2023-05-07T09:57:45;21.90;99.90
6373;DHT22;3219;51.362;7.074;2023-05-07T10:00:14;21.90;99.90
6373;DHT22;3219;51.362;7.074;2023-05-07T10:02:42;22.00;99.90
6373;DHT22;3219;51.362;7.074;2023-05-07T10:05:14;21.50;99.90
6373;DHT22;3219;51.362;7.074;2023-05-07T10:07:41;21.70;99.90
6373;DHT22;3219;51.362;7.074;2023-05-07T10:10:08;21.80;99.90
6373;DHT22;3219;51.362;7.074;2023-05-07T10:17:36;21.90;99.90
6373;DHT22;3219;51.362;7.074;2023-05-07T10:22:37;22.10;99.90
6373;DHT22;3219;51.362;7.074;2023-05-07T10:25:07;22.50;99.90
6373;DHT22;3219;51.362;7.074;2023-05-07T11:20:47;20.80;99.90
6373;DHT22;3219;51.362;7.074;2023-05-07T11:58:21;20.70;99.90
6373;DHT22;3219;51.362;7.074;2023-05-07T12:00:51;20.50;99.90
6373;DHT22;3219;51.362;7.074;2023-05-07T12:03:18;20.40;99.90
6373;DHT22;3219;51.362;7.074;2023-05-07T12:05:45;20.40;99.90
6373;DHT22;3219;51.362;7.074;2023-05-07T12:08:14;20.30;99.90
6373;DHT22;3219;51.362;7.074;2023-05-07T12:10:43;20.40;99.90
6373;DHT22;3219;51.362;7.074;2023-05-07T12:13:16;20.50;99.90
6373;DHT22;3219;51.362;7.074;2023-05-07T12:20:39;20.50;99.90
6373;DHT22;3219;51.362;7.074;2023-05-07T12:23:07;20.70;99.90
6373;DHT22;3219;51.362;7.074;2023-05-07T12:28:04;20.90;99.90
6373;DHT22;3219;51.362;7.074;2023-05-07T12:30:31;20.20;99.90
6373;DHT22;3219;51.362;7.074;2023-05-07T12:32:58;20.20;99.90
6373;DHT22;3219;51.362;7.074;2023-05-07T12:35:28;20.20;99.90
6373;DHT22;3219;51.362;7.074;2023-05-07T12:37:55;20.20;99.90
6373;DHT22;3219;51.362;7.074;2023-05-07T12:40:22;20.30;99.90
6373;DHT22;3219;51.362;7.074;2023-05-07T12:42:53;20.20;99.90
6373;DHT22;3219;51.362;7.074;2023-05-07T12:45:21;20.10;99.90
6373;DHT22;3219;51.362;7.074;2023-05-07T12:47:48;20.10;99.90
6373;DHT22;3219;51.362;7.074;2023-05-07T12:50:16;20.00;99.90
6373;DHT22;3219;51.362;7.074;2023-05-07T12:52:44;20.00;99.90
6373;DHT22;3219;51.362;7.074;2023-05-07T17:33:10;17.60;99.90
6373;DHT22;3219;51.362;7.074;2023-05-07T17:35:37;17.70;99.90
6373;DHT22;3219;51.362;7.074;2023-05-07T17:38:05;17.60;99.90
6373;DHT22;3219;51.362;7.074;2023-05-07T17:40:32;17.60;99.90
6373;DHT22;3219;51.362;7.074;2023-05-07T17:42:59;17.50;99.90
6373;DHT22;3219;51.362;7.074;2023-05-07T17:45:26;17.40;99.90
6373;DHT22;3219;51.362;7.074;2023-05-07T17:47:53;17.40;99.90
6373;DHT22;3219;51.362;7.074;2023-05-07T17:50:19;17.40;99.90
6373;DHT22;3219;51.362;7.074;2023-05-07T17:52:46;17.30;99.90
6373;DHT22;3219;51.362;7.074;2023-05-07T17:55:14;17.30;99.90
6373;DHT22;3219;51.362;7.074;2023-05-07T17:57:42;17.30;99.90
6373;DHT22;3219;51.362;7.074;2023-05-07T18:00:10;17.30;99.90
6373;DHT22;3219;51.362;7.074;2023-05-07T18:02:37;17.30;99.90
6373;DHT22;3219;51.362;7.074;2023-05-07T18:05:05;17.30;99.90
6373;DHT22;3219;51.362;7.074;2023-05-07T18:07:32;17.30;99.90
6373;DHT22;3219;51.362;7.074;2023-05-07T18:09:59;17.30;99.90
6373;DHT22;3219;51.362;7.074;2023-05-07T18:12:27;17.30;99.90
6373;DHT22;3219;51.362;7.074;2023-05-07T18:14:54;17.20;99.90
6373;DHT22;3219;51.362;7.074;2023-05-07T18:17:20;17.20;99.90
6373;DHT22;3219;51.362;7.074;2023-05-07T18:19:48;17.20;99.90
6373;DHT22;3219;51.362;7.074;2023-05-07T18:22:16;17.20;99.90
6373;DHT22;3219;51.362;7.074;2023-05-07T18:24:42;17.10;99.90
6373;DHT22;3219;51.362;7.074;2023-05-07T18:27:09;17.10;99.90
6373;DHT22;3219;51.362;7.074;2023-05-07T18:29:39;17.10;99.90
6373;DHT22;3219;51.362;7.074;2023-05-07T18:32:06;17.50;99.90
6373;DHT22;3219;51.362;7.074;2023-05-07T18:34:33;17.00;99.90
6373;DHT22;3219;51.362;7.074;2023-05-07T18:37:00;16.70;99.90
6373;DHT22;3219;51.362;7.074;2023-05-07T18:39:26;17.00;99.90
6373;DHT22;3219;51.362;7.074;2023-05-07T18:41:53;17.00;99.90
6373;DHT22;3219;51.362;7.074;2023-05-07T18:44:21;17.00;99.90
6373;DHT22;3219;51.362;7.074;2023-05-07T18:46:49;17.00;99.90
6373;DHT22;3219;51.362;7.074;2023-05-07T18:49:16;17.00;99.90
6373;DHT22;3219;51.362;7.074;2023-05-07T18:51:43;17.00;99.90
6373;DHT22;3219;51.362;7.074;2023-05-07T18:54:10;16.90;99.90
6373;DHT22;3219;51.362;7.074;2023-05-07T18:56:37;16.90;99.90
6373;DHT22;3219;51.362;7.074;2023-05-07T18:59:03;16.90;99.90
6373;DHT22;3219;51.362;7.074;2023-05-07T19:01:30;16.90;99.90
6373;DHT22;3219;51.362;7.074;2023-05-07T19:03:58;16.90;99.90
6373;DHT22;3219;51.362;7.074;2023-05-07T19:06:25;16.90;99.90
6373;DHT22;3219;51.362;7.074;2023-05-07T19:08:53;16.90;99.90
6373;DHT22;3219;51.362;7.074;2023-05-07T19:11:19;16.90;99.90
6373;DHT22;3219;51.362;7.074;2023-05-07T19:13:46;16.90;99.90
6373;DHT22;3219;51.362;7.074;2023-05-07T19:16:13;16.80;99.90
6373;DHT22;3219;51.362;7.074;2023-05-07T19:18:40;16.90;99.90
6373;DHT22;3219;51.362;7.074;2023-05-07T19:21:09;16.80;99.90
6373;DHT22;3219;51.362;7.074;2023-05-07T19:23:36;16.80;99.90
6373;DHT22;3219;51.362;7.074;2023-05-07T19:26:06;16.80;99.90
6373;DHT22;3219;51.362;7.074;2023-05-07T19:28:34;16.80;99.90
6373;DHT22;3219;51.362;7.074;2023-05-07T19:31:01;16.70;99.90
6373;DHT22;3219;51.362;7.074;2023-05-07T19:33:28;17.40;99.90
6373;DHT22;3219;51.362;7.074;2023-05-07T19:35:55;17.00;99.90
6373;DHT22;3219;51.362;7.074;2023-05-07T19:38:25;16.80;99.90
6373;DHT22;3219;51.362;7.074;2023-05-07T19:40:52;16.70;99.90
6373;DHT22;3219;51.362;7.074;2023-05-07T19:43:20;16.10;99.90
6373;DHT22;3219;51.362;7.074;2023-05-07T19:45:46;16.70;99.90
6373;DHT22;3219;51.362;7.074;2023-05-07T19:48:14;16.80;99.90
6373;DHT22;3219;51.362;7.074;2023-05-07T19:50:41;16.80;99.90
6373;DHT22;3219;51.362;7.074;2023-05-07T19:53:08;16.80;99.90
6373;DHT22;3219;51.362;7.074;2023-05-07T19:55:36;16.70;99.90
6373;DHT22;3219;51.362;7.074;2023-05-07T19:58:03;16.60;99.90
6373;DHT22;3219;51.362;7.074;2023-05-07T20:00:30;16.60;99.90
6373;DHT22;3219;51.362;7.074;2023-05-07T20:02:58;16.50;99.90
6373;DHT22;3219;51.362;7.074;2023-05-07T20:05:24;16.50;99.90
6373;DHT22;3219;51.362;7.074;2023-05-07T20:07:52;16.50;99.90
6373;DHT22;3219;51.362;7.074;2023-05-07T20:10:19;16.50;99.90
6373;DHT22;3219;51.362;7.074;2023-05-07T20:12:47;16.50;99.90
6373;DHT22;3219;51.362;7.074;2023-05-07T20:15:14;16.50;99.90
6373;DHT22;3219;51.362;7.074;2023-05-07T20:17:41;16.50;99.90
6373;DHT22;3219;51.362;7.074;2023-05-07T20:20:09;16.50;99.90
6373;DHT22;3219;51.362;7.074;2023-05-07T20:22:35;16.50;99.90
6373;DHT22;3219;51.362;7.074;2023-05-07T20:25:03;16.50;99.90
6373;DHT22;3219;51.362;7.074;2023-05-07T20:27:30;16.50;99.90
6373;DHT22;3219;51.362;7.074;2023-05-07T20:30:00;16.50;99.90
6373;DHT22;3219;51.362;7.074;2023-05-07T20:32:27;16.50;99.90
6373;DHT22;3219;51.362;7.074;2023-05-07T20:34:54;16.50;99.90
6373;DHT22;3219;51.362;7.074;2023-05-07T20:37:20;16.50;99.90
6373;DHT22;3219;51.362;7.074;2023-05-07T20:39:47;16.50;99.90
6373;DHT22;3219;51.362;7.074;2023-05-07T20:42:14;16.50;99.90
6373;DHT22;3219;51.362;7.074;2023-05-07T20:44:41;16.50;99.90
6373;DHT22;3219;51.362;7.074;2023-05-07T20:47:09;16.50;99.90
6373;DHT22;3219;51.362;7.074;2023-05-07T20:49:36;16.50;99.90
6373;DHT22;3219;51.362;7.074;2023-05-07T20:52:03;16.40;99.90
6373;DHT22;3219;51.362;7.074;2023-05-07T20:54:30;16.50;99.90
6373;DHT22;3219;51.362;7.074;2023-05-07T20:56:57;16.40;99.90
6373;DHT22;3219;51.362;7.074;2023-05-07T20:59:25;16.40;99.90
6373;DHT22;3219;51.362;7.074;2023-05-07T21:01:52;16.40;99.90
6373;DHT22;3219;51.362;7.074;2023-05-07T21:04:22;16.40;99.90
6373;DHT22;3219;51.362;7.074;2023-05-07T21:06:49;16.40;99.90
6373;DHT22;3219;51.362;7.074;2023-05-07T21:09:15;16.40;99.90
6373;DHT22;3219;51.362;7.074;2023-05-07T21:11:43;16.40;99.90
6373;DHT22;3219;51.362;7.074;2023-05-07T21:14:09;16.40;99.90
6373;DHT22;3219;51.362;7.074;2023-05-07T21:16:36;16.30;99.90
6373;DHT22;3219;51.362;7.074;2023-05-07T21:19:04;16.30;99.90
6373;DHT22;3219;51.362;7.074;2023-05-07T21:21:34;16.30;99.90
6373;DHT22;3219;51.362;7.074;2023-05-07T21:24:01;16.30;99.90
6373;DHT22;3219;51.362;7.074;2023-05-07T21:26:27;16.30;99.90
6373;DHT22;3219;51.362;7.074;2023-05-07T21:28:54;16.30;99.90
6373;DHT22;3219;51.362;7.074;2023-05-07T21:31:21;16.30;99.90
6373;DHT22;3219;51.362;7.074;2023-05-07T21:33:48;16.30;99.90
6373;DHT22;3219;51.362;7.074;2023-05-07T21:36:17;16.40;99.90
6373;DHT22;3219;51.362;7.074;2023-05-07T21:38:45;16.30;99.90
6373;DHT22;3219;51.362;7.074;2023-05-07T21:41:12;16.40;99.90
6373;DHT22;3219;51.362;7.074;2023-05-07T21:46:06;16.20;99.90
6373;DHT22;3219;51.362;7.074;2023-05-07T21:48:33;16.20;99.90
6373;DHT22;3219;51.362;7.074;2023-05-07T21:51:00;15.70;99.90
6373;DHT22;3219;51.362;7.074;2023-05-07T21:53:27;16.20;99.90
6373;DHT22;3219;51.362;7.074;2023-05-07T21:55:55;16.20;99.90
6373;DHT22;3219;51.362;7.074;2023-05-07T21:58:24;16.20;99.90
6373;DHT22;3219;51.362;7.074;2023-05-07T22:00:51;16.20;99.90
6373;DHT22;3219;51.362;7.074;2023-05-07T22:03:18;16.20;99.90
6373;DHT22;3219;51.362;7.074;2023-05-07T22:05:45;16.20;99.90
6373;DHT22;3219;51.362;7.074;2023-05-07T22:08:12;16.20;99.90
6373;DHT22;3219;51.362;7.074;2023-05-07T22:13:07;16.20;99.90
6373;DHT22;3219;51.362;7.074;2023-05-07T22:15:34;16.20;99.90
6373;DHT22;3219;51.362;7.074;2023-05-07T22:18:01;16.20;99.90
6373;DHT22;3219;51.362;7.074;2023-05-07T22:20:27;16.00;99.90
6373;DHT22;3219;51.362;7.074;2023-05-07T22:22:55;16.10;99.90
6373;DHT22;3219;51.362;7.074;2023-05-07T22:25:23;16.20;99.90
6373;DHT22;3219;51.362;7.074;2023-05-07T22:27:50;16.80;99.90
6373;DHT22;3219;51.362;7.074;2023-05-07T22:30:19;16.10;99.90
6373;DHT22;3219;51.362;7.074;2023-05-07T22:32:45;16.10;99.90
6373;DHT22;3219;51.362;7.074;2023-05-07T22:35:13;16.00;99.90
6373;DHT22;3219;51.362;7.074;2023-05-07T22:37:40;16.00;99.90
6373;DHT22;3219;51.362;7.074;2023-05-07T22:40:08;16.00;99.90
6373;DHT22;3219;51.362;7.074;2023-05-07T22:42:34;16.00;99.90
6373;DHT22;3219;51.362;7.074;2023-05-07T22:45:01;16.00;99.90
6373;DHT22;3219;51.362;7.074;2023-05-07T22:47:29;15.90;99.90
6373;DHT22;3219;51.362;7.074;2023-05-07T22:49:56;15.90;99.90
6373;DHT22;3219;51.362;7.074;2023-05-07T22:52:23;15.90;99.90
6373;DHT22;3219;51.362;7.074;2023-05-07T22:54:50;15.70;99.90
6373;DHT22;3219;51.362;7.074;2023-05-07T22:57:17;15.80;99.90
6373;DHT22;3219;51.362;7.074;2023-05-07T22:59:43;15.80;99.90
6373;DHT22;3219;51.362;7.074;2023-05-07T23:02:10;15.80;99.90
6373;DHT22;3219;51.362;7.074;2023-05-07T23:04:38;15.80;99.90
6373;DHT22;3219;51.362;7.074;2023-05-07T23:07:05;15.80;99.90
6373;DHT22;3219;51.362;7.074;2023-05-07T23:09:32;15.60;99.90
6373;DHT22;3219;51.362;7.074;2023-05-07T23:11:58;15.80;99.90
6373;DHT22;3219;51.362;7.074;2023-05-07T23:14:25;15.70;99.90
6373;DHT22;3219;51.362;7.074;2023-05-07T23:16:52;15.80;99.90
6373;DHT22;3219;51.362;7.074;2023-05-07T23:19:18;15.70;99.90
6373;DHT22;3219;51.362;7.074;2023-05-07T23:21:47;15.70;99.90
6373;DHT22;3219;51.362;7.074;2023-05-07T23:24:14;15.80;99.90
6373;DHT22;3219;51.362;7.074;2023-05-07T23:26:40;15.80;99.90
6373;DHT22;3219;51.362;7.074;2023-05-07T23:29:07;15.70;99.90
6373;DHT22;3219;51.362;7.074;2023-05-07T23:31:34;15.70;99.90
6373;DHT22;3219;51.362;7.074;2023-05-07T23:34:00;15.60;99.90
6373;DHT22;3219;51.362;7.074;2023-05-07T23:36:27;15.60;99.90
6373;DHT22;3219;51.362;7.074;2023-05-07T23:38:55;14.50;99.90
6373;DHT22;3219;51.362;7.074;2023-05-07T23:41:22;15.60;99.90
6373;DHT22;3219;51.362;7.074;2023-05-07T23:43:49;15.60;99.90
6373;DHT22;3219;51.362;7.074;2023-05-07T23:46:16;15.50;99.90
6373;DHT22;3219;51.362;7.074;2023-05-07T23:48:42;15.50;99.90
6373;DHT22;3219;51.362;7.074;2023-05-07T23:51:09;15.20;99.90
6373;DHT22;3219;51.362;7.074;2023-05-07T23:53:36;15.60;99.90
6373;DHT22;3219;51.362;7.074;2023-05-07T23:56:04;15.50;99.90
6373;DHT22;3219;51.362;7.074;2023-05-07T23:58:31;15.90;99.90
